x

Matinicus Rock, Me (mism1) Weather Station

10:00 - Fri 29th May 2015 All times are EDT. -4 hours from GMT.

  • Wind
    9mph, 10mph gusts
  • Aire Temp 55°f
  • Sea Pressure 1024.3mb
  • Matinicus Rock, Me
  • Matinicus Rock, Me

More Historic Weather Station data

Upgrade to MSW Pro to gain access to the past 30 days of data for over 8000 Wavebouys and Weather Stations around the globe.

Join Pro

Comparision Forecast

View Surf forecast
   
vie 05/29 10:00 9 10 mph 1024.3mb 55f
9:00 7
mph
1024.6mb 54f
8:00 8 9 mph 1024.8mb 55f
7:00 5
mph
1024.8mb 54f
6:00 3 5 mph 1024.9mb 56f
5:00 5
mph
1025.2mb 60f
4:00 7 8 mph 1025.6mb 60f
3:00 9
mph
1025.5mb 60f
2:00 7 8 mph 1025.7mb 63f
1:00  -  mph 1025.8mb 64f
12:00  -  mph 1025.7mb 62f
11:00  -  2 mph 1026mb 63f
10:00 9
mph
1025.7mb 60f
9:00 11 13 mph 1025.4mb 58f
8:00 15 16 mph 1024.7mb 56f
7:00 17
mph
1024.3mb 57f
6:00 17
mph
1023.4mb 55f
5:00 17 18 mph 1022.4mb 58f
4:00 16 17 mph 1022mb 60f
3:00 15 16 mph 1021.7mb 59f
2:00 15 16 mph 1021.4mb 55f
1:00 11
mph
1021mb 52f
12:00 8
mph
1020.5mb 52f
jue 05/28 11:00 11 13 mph 1020.4mb 51f
10:00 13 14 mph 1019.8mb 55f
9:00 11 13 mph 1019.8mb 58f
8:00 11 13 mph 1018mb 53f
7:00 22 23 mph 1018.5mb 55f
6:00 21 22 mph 1017.8mb 51f
5:00 29 30 mph 1016.6mb 54f
4:00 25 28 mph 1016.8mb 53f
3:00 30 31 mph 1017.4mb 53f
2:00 28 29 mph 1017.7mb 52f
1:00 23 25 mph 1018.6mb 52f
12:00 28 29 mph 1018.8mb 52f
11:00 18 21 mph 1019.4mb 51f
10:00 23 24 mph 1019.4mb 51f
9:00 23 24 mph 1019.3mb 51f
8:00 23 25 mph 1019.2mb 51f
7:00 25 28 mph 1018.7mb 51f
6:00 26 28 mph 1018.4mb 51f
5:00 25 26 mph 1018mb 52f
4:00 28 30 mph 1017.5mb 52f
3:00 31 33 mph 1017.5mb 53f
2:00 31 32 mph 1017.6mb 53f
1:00 32 36 mph 1017.8mb 53f
12:00 31 34 mph 1017.9mb 54f
mié 05/27 11:00 33 36 mph 1018mb 55f
10:00 37 40 mph 1017.9mb 56f
9:00 33 36 mph 1017.5mb 55f
8:00 33 37 mph 1016.9mb 55f
7:00 36 43 mph 1016.6mb 55f
6:00 37 39 mph 1016.7mb 55f
5:00 30 33 mph 1016.9mb 55f
4:00 29 31 mph 1017.6mb 53f
3:00 25 28 mph 1018.5mb 53f
2:00 23 25 mph 1019.3mb 52f
1:00 23 24 mph 1020mb 52f
12:00 26 29 mph 1020mb 52f
11:00 24 26 mph 1020.1mb 51f
10:00 21 22 mph 1020.3mb 51f
9:00 23 25 mph 1020.3mb 51f
8:00 22 23 mph 1020.3mb 51f
7:00 23 24 mph 1019.9mb 51f
6:00 25 26 mph 1019.3mb 52f
5:00 25 26 mph 1019mb 52f
4:00 26 29 mph 1018.6mb 52f
3:00 26 28 mph 1018.8mb 52f
2:00 21
mph
1019.1mb 52f
1:00 21 22 mph 1018.9mb 52f
12:00 24 25 mph 1018.7mb 53f
mar 05/26 11:00 26 28 mph 1018.3mb 54f
10:00 25 26 mph 1017.8mb 53f
9:00 28 29 mph 1017.4mb 54f
8:00 25 26 mph 1017.4mb 52f
7:00 24 25 mph 1017.6mb 52f
6:00 28 29 mph 1017.4mb 53f
5:00 25 28 mph 1017.6mb 53f
4:00 30 31 mph 1017.4mb 53f
3:00 25 26 mph 1017.6mb 52f
2:00 28 30 mph 1017.8mb 53f
1:00 29 30 mph 1017.9mb 52f
12:00 28 30 mph 1018.6mb 51f
11:00 30 32 mph 1018.3mb 51f
10:00 25 29 mph 1018.8mb 51f
9:00 30 32 mph 1018.6mb 52f
8:00 29 31 mph 1019mb 52f
7:00 33 36 mph 1018.1mb 51f
6:00 26 28 mph 1019mb 51f
5:00 23 24 mph 1018.8mb 51f
4:00 22 23 mph 1018.6mb 50f